sensor_id;sensor_type;location;lat;lon;timestamp;pressure;altitude;pressure_sealevel;temperature;humidity
58975;BME280;44751;52.236;5.178;2023-05-23T06:42:12;102106.84;;;12.18;100.00
58975;BME280;44751;52.236;5.178;2023-05-23T06:44:40;102098.91;;;12.17;100.00
58975;BME280;44751;52.236;5.178;2023-05-23T06:47:06;102106.00;;;12.18;100.00
58975;BME280;44751;52.236;5.178;2023-05-23T06:49:32;102105.03;;;12.27;100.00
58975;BME280;44751;52.236;5.178;2023-05-23T06:51:59;102102.06;;;12.38;100.00
58975;BME280;44751;52.236;5.178;2023-05-23T06:54:25;102107.75;;;12.27;100.00
58975;BME280;44751;52.236;5.178;2023-05-23T06:56:52;102106.47;;;12.39;100.00
58975;BME280;44751;52.236;5.178;2023-05-23T06:59:21;102110.97;;;12.57;100.00
58975;BME280;44751;52.236;5.178;2023-05-23T07:01:48;102117.94;;;12.60;100.00
58975;BME280;44751;52.236;5.178;2023-05-23T07:04:14;102119.03;;;12.75;100.00
58975;BME280;44751;52.236;5.178;2023-05-23T07:06:40;102125.06;;;12.69;100.00
58975;BME280;44751;52.236;5.178;2023-05-23T07:09:07;102120.78;;;12.93;100.00
58975;BME280;44751;52.236;5.178;2023-05-23T07:11:38;102118.16;;;13.35;100.00
58975;BME280;44751;52.236;5.178;2023-05-23T07:14:05;102134.94;;;13.30;100.00
58975;BME280;44751;52.236;5.178;2023-05-23T07:16:33;102122.19;;;13.14;100.00
58975;BME280;44751;52.236;5.178;2023-05-23T07:19:00;102128.94;;;13.10;100.00
58975;BME280;44751;52.236;5.178;2023-05-23T07:21:29;102121.97;;;12.99;100.00
58975;BME280;44751;52.236;5.178;2023-05-23T07:24:04;102127.13;;;13.19;100.00
58975;BME280;44751;52.236;5.178;2023-05-23T07:26:31;102129.28;;;13.15;100.00
58975;BME280;44751;52.236;5.178;2023-05-23T07:28:58;102136.97;;;13.28;100.00
58975;BME280;44751;52.236;5.178;2023-05-23T07:31:30;102128.81;;;13.20;100.00
58975;BME280;44751;52.236;5.178;2023-05-23T07:33:56;102140.66;;;13.19;100.00
58975;BME280;44751;52.236;5.178;2023-05-23T07:36:23;102138.00;;;13.35;100.00
58975;BME280;44751;52.236;5.178;2023-05-23T07:38:51;102142.66;;;13.68;100.00
58975;BME280;44751;52.236;5.178;2023-05-23T07:41:18;102138.25;;;14.17;100.00
58975;BME280;44751;52.236;5.178;2023-05-23T07:43:47;102159.91;;;14.42;100.00
58975;BME280;44751;52.236;5.178;2023-05-23T07:46:14;102152.84;;;13.91;100.00
58975;BME280;44751;52.236;5.178;2023-05-23T07:48:40;102146.03;;;13.70;100.00
58975;BME280;44751;52.236;5.178;2023-05-23T07:51:07;102146.19;;;13.52;100.00
58975;BME280;44751;52.236;5.178;2023-05-23T07:53:33;102145.00;;;13.54;100.00
58975;BME280;44751;52.236;5.178;2023-05-23T07:56:07;102141.97;;;13.49;100.00
58975;BME280;44751;52.236;5.178;2023-05-23T07:58:39;102143.59;;;13.34;100.00
58975;BME280;44751;52.236;5.178;2023-05-23T08:01:06;102150.53;;;13.45;100.00
58975;BME280;44751;52.236;5.178;2023-05-23T08:03:32;102160.28;;;14.14;100.00
58975;BME280;44751;52.236;5.178;2023-05-23T08:05:59;102149.63;;;14.04;100.00
58975;BME280;44751;52.236;5.178;2023-05-23T08:08:25;102144.19;;;13.87;100.00
58975;BME280;44751;52.236;5.178;2023-05-23T08:10:55;102159.63;;;13.87;100.00
58975;BME280;44751;52.236;5.178;2023-05-23T08:13:21;102165.72;;;14.22;100.00
58975;BME280;44751;52.236;5.178;2023-05-23T08:15:48;102162.16;;;13.80;100.00
58975;BME280;44751;52.236;5.178;2023-05-23T08:18:14;102171.16;;;13.89;100.00
58975;BME280;44751;52.236;5.178;2023-05-23T08:20:45;102171.50;;;13.94;100.00
58975;BME280;44751;52.236;5.178;2023-05-23T08:23:14;102182.69;;;13.99;100.00
58975;BME280;44751;52.236;5.178;2023-05-23T08:25:43;102171.31;;;14.04;100.00
58975;BME280;44751;52.236;5.178;2023-05-23T08:28:09;102185.59;;;14.96;100.00
58975;BME280;44751;52.236;5.178;2023-05-23T08:30:36;102169.72;;;14.59;100.00
58975;BME280;44751;52.236;5.178;2023-05-23T08:33:02;102182.41;;;14.84;100.00
58975;BME280;44751;52.236;5.178;2023-05-23T08:35:33;102174.88;;;14.38;100.00
58975;BME280;44751;52.236;5.178;2023-05-23T08:38:04;102182.09;;;14.62;100.00
58975;BME280;44751;52.236;5.178;2023-05-23T08:40:31;102183.97;;;14.62;100.00
58975;BME280;44751;52.236;5.178;2023-05-23T08:43:02;102176.03;;;14.43;100.00
58975;BME280;44751;52.236;5.178;2023-05-23T08:45:28;102181.41;;;14.77;100.00
58975;BME280;44751;52.236;5.178;2023-05-23T08:47:59;102186.81;;;15.57;100.00
58975;BME280;44751;52.236;5.178;2023-05-23T08:50:27;102180.25;;;16.36;100.00
58975;BME280;44751;52.236;5.178;2023-05-23T08:52:58;102198.72;;;16.26;100.00
58975;BME280;44751;52.236;5.178;2023-05-23T08:55:28;102198.47;;;15.97;100.00
58975;BME280;44751;52.236;5.178;2023-05-23T08:57:58;102199.28;;;15.51;100.00
58975;BME280;44751;52.236;5.178;2023-05-23T09:00:26;102211.59;;;15.39;100.00
58975;BME280;44751;52.236;5.178;2023-05-23T09:02:56;102204.66;;;15.83;100.00
58975;BME280;44751;52.236;5.178;2023-05-23T09:05:26;102198.94;;;15.78;99.24
58975;BME280;44751;52.236;5.178;2023-05-23T09:07:52;102210.81;;;15.53;100.00
58975;BME280;44751;52.236;5.178;2023-05-23T09:10:21;102221.78;;;15.36;100.00
58975;BME280;44751;52.236;5.178;2023-05-23T09:12:48;102223.19;;;15.24;100.00
58975;BME280;44751;52.236;5.178;2023-05-23T09:15:15;102217.41;;;15.27;100.00
58975;BME280;44751;52.236;5.178;2023-05-23T09:17:44;102228.31;;;16.29;97.47
58975;BME280;44751;52.236;5.178;2023-05-23T09:20:13;102213.84;;;15.58;97.93
58975;BME280;44751;52.236;5.178;2023-05-23T09:22:42;102220.66;;;16.09;99.77
58975;BME280;44751;52.236;5.178;2023-05-23T09:25:14;102220.69;;;16.78;95.69
58975;BME280;44751;52.236;5.178;2023-05-23T09:27:41;102220.22;;;16.21;93.05
58975;BME280;44751;52.236;5.178;2023-05-23T09:30:09;102224.06;;;16.11;95.17
58975;BME280;44751;52.236;5.178;2023-05-23T09:32:36;102227.63;;;15.57;97.81
58975;BME280;44751;52.236;5.178;2023-05-23T09:35:08;102236.72;;;15.01;100.00
58975;BME280;44751;52.236;5.178;2023-05-23T09:37:42;102239.13;;;14.87;100.00
58975;BME280;44751;52.236;5.178;2023-05-23T09:40:11;102242.63;;;15.04;100.00
58975;BME280;44751;52.236;5.178;2023-05-23T09:42:43;102240.72;;;15.21;100.00
58975;BME280;44751;52.236;5.178;2023-05-23T09:45:14;102238.09;;;14.88;100.00
58975;BME280;44751;52.236;5.178;2023-05-23T09:47:51;102246.88;;;15.07;100.00
58975;BME280;44751;52.236;5.178;2023-05-23T09:50:19;102231.41;;;15.47;100.00
58975;BME280;44751;52.236;5.178;2023-05-23T09:52:45;102232.59;;;17.15;95.29
58975;BME280;44751;52.236;5.178;2023-05-23T09:55:15;102233.06;;;16.50;93.71
58975;BME280;44751;52.236;5.178;2023-05-23T09:57:42;102224.81;;;15.73;97.38
58975;BME280;44751;52.236;5.178;2023-05-23T10:00:10;102220.44;;;15.32;100.00
58975;BME280;44751;52.236;5.178;2023-05-23T10:05:17;102240.59;;;15.46;100.00
58975;BME280;44751;52.236;5.178;2023-05-23T10:07:48;102244.88;;;15.72;100.00
58975;BME280;44751;52.236;5.178;2023-05-23T10:10:16;102245.84;;;15.48;100.00
58975;BME280;44751;52.236;5.178;2023-05-23T10:12:54;102253.00;;;16.27;98.80
58975;BME280;44751;52.236;5.178;2023-05-23T10:15:25;102250.97;;;17.28;91.63
58975;BME280;44751;52.236;5.178;2023-05-23T10:18:17;102253.88;;;16.97;91.86
58975;BME280;44751;52.236;5.178;2023-05-23T10:20:48;102254.53;;;16.69;92.70
58975;BME280;44751;52.236;5.178;2023-05-23T10:23:15;102252.06;;;16.20;94.74
58975;BME280;44751;52.236;5.178;2023-05-23T10:25:43;102250.78;;;15.53;97.38
58975;BME280;44751;52.236;5.178;2023-05-23T10:28:10;102247.09;;;15.69;97.57
58975;BME280;44751;52.236;5.178;2023-05-23T10:30:37;102271.44;;;15.30;99.89
58975;BME280;44751;52.236;5.178;2023-05-23T10:33:04;102270.66;;;15.05;100.00
58975;BME280;44751;52.236;5.178;2023-05-23T10:38:27;102249.97;;;14.95;100.00
58975;BME280;44751;52.236;5.178;2023-05-23T10:43:33;102265.59;;;15.50;100.00
58975;BME280;44751;52.236;5.178;2023-05-23T10:46:03;102263.44;;;16.00;98.33
58975;BME280;44751;52.236;5.178;2023-05-23T10:51:10;102262.66;;;17.37;89.20
58975;BME280;44751;52.236;5.178;2023-05-23T10:53:38;102263.16;;;16.72;92.21
58975;BME280;44751;52.236;5.178;2023-05-23T10:56:09;102254.75;;;17.27;89.50
58975;BME280;44751;52.236;5.178;2023-05-23T10:58:37;102264.41;;;17.45;89.22
58975;BME280;44751;52.236;5.178;2023-05-23T11:01:06;102256.63;;;17.27;89.14
58975;BME280;44751;52.236;5.178;2023-05-23T11:03:34;102269.75;;;17.68;89.60
58975;BME280;44751;52.236;5.178;2023-05-23T11:06:04;102258.31;;;16.98;93.13
58975;BME280;44751;52.236;5.178;2023-05-23T11:08:38;102266.88;;;16.41;94.70
58975;BME280;44751;52.236;5.178;2023-05-23T11:11:07;102267.59;;;15.88;97.67
58975;BME280;44751;52.236;5.178;2023-05-23T11:16:39;102274.91;;;15.56;100.00
58975;BME280;44751;52.236;5.178;2023-05-23T11:21:54;102276.34;;;15.75;100.00
58975;BME280;44751;52.236;5.178;2023-05-23T11:24:22;102268.63;;;16.72;97.19
58975;BME280;44751;52.236;5.178;2023-05-23T11:26:53;102274.16;;;16.64;95.10
58975;BME280;44751;52.236;5.178;2023-05-23T11:29:25;102259.22;;;15.98;92.58
58975;BME280;44751;52.236;5.178;2023-05-23T11:31:53;102274.66;;;15.74;93.38
58975;BME280;44751;52.236;5.178;2023-05-23T11:34:20;102284.56;;;15.90;94.40
58975;BME280;44751;52.236;5.178;2023-05-23T11:36:46;102281.22;;;15.80;94.41
58975;BME280;44751;52.236;5.178;2023-05-23T11:39:17;102277.75;;;15.94;93.19
58975;BME280;44751;52.236;5.178;2023-05-23T11:42:01;102274.97;;;15.39;94.33
58975;BME280;44751;52.236;5.178;2023-05-23T11:44:28;102284.19;;;15.61;96.26
58975;BME280;44751;52.236;5.178;2023-05-23T11:47:02;102271.81;;;15.59;96.72
58975;BME280;44751;52.236;5.178;2023-05-23T11:49:34;102274.31;;;15.69;96.37
58975;BME280;44751;52.236;5.178;2023-05-23T11:52:03;102272.03;;;15.49;97.91
58975;BME280;44751;52.236;5.178;2023-05-23T11:54:31;102266.50;;;16.44;94.75
58975;BME280;44751;52.236;5.178;2023-05-23T11:57:06;102266.06;;;17.09;91.40
58975;BME280;44751;52.236;5.178;2023-05-23T12:20:14;102289.75;;;15.77;96.19
58975;BME280;44751;52.236;5.178;2023-05-23T12:22:41;102286.91;;;15.61;95.20
58975;BME280;44751;52.236;5.178;2023-05-23T12:25:11;102287.09;;;16.00;94.23
58975;BME280;44751;52.236;5.178;2023-05-23T12:27:39;102294.91;;;17.19;90.13
58975;BME280;44751;52.236;5.178;2023-05-23T12:30:15;102285.31;;;17.08;90.00
58975;BME280;44751;52.236;5.178;2023-05-23T12:32:44;102295.84;;;17.11;88.25
58975;BME280;44751;52.236;5.178;2023-05-23T12:35:15;102289.34;;;16.58;87.60
58975;BME280;44751;52.236;5.178;2023-05-23T12:37:45;102283.59;;;15.83;88.15
58975;BME280;44751;52.236;5.178;2023-05-23T12:40:13;102282.50;;;15.60;89.58
58975;BME280;44751;52.236;5.178;2023-05-23T12:42:50;102295.41;;;15.67;90.59
58975;BME280;44751;52.236;5.178;2023-05-23T12:45:19;102289.25;;;15.73;92.31
58975;BME280;44751;52.236;5.178;2023-05-23T12:47:46;102291.25;;;16.11;92.57
58975;BME280;44751;52.236;5.178;2023-05-23T12:50:16;102294.41;;;16.46;91.06
58975;BME280;44751;52.236;5.178;2023-05-23T12:52:43;102287.94;;;16.62;90.91
58975;BME280;44751;52.236;5.178;2023-05-23T12:55:09;102290.38;;;16.96;89.62
58975;BME280;44751;52.236;5.178;2023-05-23T12:57:36;102288.78;;;16.48;90.48
58975;BME280;44751;52.236;5.178;2023-05-23T13:00:03;102300.06;;;16.21;93.58
58975;BME280;44751;52.236;5.178;2023-05-23T13:02:33;102289.81;;;16.47;89.56
58975;BME280;44751;52.236;5.178;2023-05-23T13:05:00;102294.47;;;16.76;88.08
58975;BME280;44751;52.236;5.178;2023-05-23T13:07:30;102300.16;;;17.50;87.67
58975;BME280;44751;52.236;5.178;2023-05-23T13:09:56;102293.47;;;17.53;85.71
58975;BME280;44751;52.236;5.178;2023-05-23T13:12:23;102300.94;;;16.60;87.91
58975;BME280;44751;52.236;5.178;2023-05-23T13:15:08;102289.94;;;16.30;87.34
58975;BME280;44751;52.236;5.178;2023-05-23T13:17:48;102314.63;;;16.52;87.62
58975;BME280;44751;52.236;5.178;2023-05-23T13:20:21;102308.56;;;16.65;86.77
58975;BME280;44751;52.236;5.178;2023-05-23T13:23:16;102318.13;;;16.14;88.53
58975;BME280;44751;52.236;5.178;2023-05-23T13:25:43;102314.13;;;15.70;90.53
58975;BME280;44751;52.236;5.178;2023-05-23T13:28:09;102307.06;;;15.44;91.08
58975;BME280;44751;52.236;5.178;2023-05-23T13:30:39;102302.91;;;16.05;89.45
58975;BME280;44751;52.236;5.178;2023-05-23T13:33:07;102302.28;;;16.18;89.18
58975;BME280;44751;52.236;5.178;2023-05-23T13:35:33;102309.97;;;15.82;90.05
58975;BME280;44751;52.236;5.178;2023-05-23T13:38:00;102294.75;;;16.67;87.64
58975;BME280;44751;52.236;5.178;2023-05-23T13:40:27;102312.34;;;16.79;86.75
58975;BME280;44751;52.236;5.178;2023-05-23T13:42:53;102301.19;;;17.04;83.12
58975;BME280;44751;52.236;5.178;2023-05-23T13:45:20;102300.75;;;16.62;85.84
58975;BME280;44751;52.236;5.178;2023-05-23T13:47:49;102309.84;;;16.07;87.54
58975;BME280;44751;52.236;5.178;2023-05-23T13:50:16;102312.94;;;16.04;89.49
58975;BME280;44751;52.236;5.178;2023-05-23T13:52:43;102316.75;;;15.86;89.23
58975;BME280;44751;52.236;5.178;2023-05-23T13:55:09;102310.28;;;15.87;90.63
58975;BME280;44751;52.236;5.178;2023-05-23T13:57:36;102304.25;;;16.47;89.61
58975;BME280;44751;52.236;5.178;2023-05-23T14:00:06;102306.44;;;16.52;87.20
58975;BME280;44751;52.236;5.178;2023-05-23T14:02:34;102304.56;;;16.29;89.64
58975;BME280;44751;52.236;5.178;2023-05-23T14:05:04;102309.50;;;16.10;89.72
58975;BME280;44751;52.236;5.178;2023-05-23T14:10:39;102306.94;;;17.09;87.28
58975;BME280;44751;52.236;5.178;2023-05-23T14:13:06;102298.41;;;16.35;85.28
58975;BME280;44751;52.236;5.178;2023-05-23T14:15:43;102306.09;;;16.08;86.39
58975;BME280;44751;52.236;5.178;2023-05-23T14:18:25;102300.34;;;17.03;86.04
58975;BME280;44751;52.236;5.178;2023-05-23T14:20:58;102300.56;;;17.17;80.72
58975;BME280;44751;52.236;5.178;2023-05-23T14:26:07;102295.59;;;16.67;83.49
58975;BME280;44751;52.236;5.178;2023-05-23T14:31:14;102293.41;;;16.00;84.05
58975;BME280;44751;52.236;5.178;2023-05-23T15:09:59;102328.56;;;15.70;82.29
58975;BME280;44751;52.236;5.178;2023-05-23T15:12:31;102324.75;;;16.20;84.64
58975;BME280;44751;52.236;5.178;2023-05-23T15:15:11;102336.31;;;15.50;83.05
58975;BME280;44751;52.236;5.178;2023-05-23T15:20:51;102333.53;;;14.93;84.50
58975;BME280;44751;52.236;5.178;2023-05-23T15:23:34;102330.78;;;15.67;81.47
58975;BME280;44751;52.236;5.178;2023-05-23T15:26:08;102330.13;;;16.28;79.72
58975;BME280;44751;52.236;5.178;2023-05-23T15:28:54;102329.66;;;16.24;77.94
58975;BME280;44751;52.236;5.178;2023-05-23T15:31:38;102329.59;;;16.01;77.74
58975;BME280;44751;52.236;5.178;2023-05-23T15:34:18;102328.97;;;15.99;76.92
58975;BME280;44751;52.236;5.178;2023-05-23T15:36:54;102327.81;;;15.85;77.46
58975;BME280;44751;52.236;5.178;2023-05-23T15:47:13;102327.97;;;15.83;82.79
58975;BME280;44751;52.236;5.178;2023-05-23T15:49:41;102337.88;;;16.16;81.03
58975;BME280;44751;52.236;5.178;2023-05-23T18:43:54;102350.28;;;13.09;93.89
58975;BME280;44751;52.236;5.178;2023-05-23T18:46:21;102338.81;;;13.15;95.20
58975;BME280;44751;52.236;5.178;2023-05-23T18:48:49;102340.34;;;13.18;94.09
58975;BME280;44751;52.236;5.178;2023-05-23T18:51:25;102344.84;;;13.09;95.51
58975;BME280;44751;52.236;5.178;2023-05-23T18:53:52;102350.72;;;12.96;96.68
58975;BME280;44751;52.236;5.178;2023-05-23T18:56:19;102358.00;;;12.77;97.00
58975;BME280;44751;52.236;5.178;2023-05-23T18:58:51;102348.72;;;12.80;95.75
58975;BME280;44751;52.236;5.178;2023-05-23T19:01:19;102353.22;;;12.71;96.19
58975;BME280;44751;52.236;5.178;2023-05-23T19:03:45;102359.56;;;12.62;96.15
58975;BME280;44751;52.236;5.178;2023-05-23T19:06:15;102357.63;;;12.72;95.84
58975;BME280;44751;52.236;5.178;2023-05-23T19:08:42;102355.00;;;12.62;95.96
58975;BME280;44751;52.236;5.178;2023-05-23T19:11:12;102356.47;;;12.57;97.46
58975;BME280;44751;52.236;5.178;2023-05-23T19:13:42;102357.56;;;12.64;97.28
